Time;durP1;ratioP1;P1;durP2;ratioP2;P2;SDS_P1;SDS_P2;PMS_P1;PMS_P2;Temp;Humidity;BMP_temperature;BMP_pressure;BME280_temperature;BME280_humidity;BME280_pressure;Samples;Min_cycle;Max_cycle;Signal;HPM_P1;HPM_P2
2021/11/04 00:01:25;;;;;;;117.77;46.23;;;;;;;5.40;83.09;100593.05;1724765;83;21035;-85
2021/11/04 00:03:51;;;;;;;112.52;46.42;;;;;;;5.38;82.99;100597.73;1724169;83;21051;-85
2021/11/04 00:06:18;;;;;;;111.15;47.17;;;;;;;5.38;83.00;100599.05;1724140;82;21114;-84
2021/11/04 00:08:45;;;;;;;89.77;47.48;;;;;;;5.38;83.02;100585.99;1707595;83;21050;-85
2021/11/04 00:11:12;;;;;;;110.25;46.30;;;;;;;5.39;83.01;100582.57;1737807;82;21706;-90
2021/11/04 00:13:38;;;;;;;75.28;45.12;;;;;;;5.37;83.00;100581.19;1737297;82;21532;-90
2021/11/04 00:16:08;;;;;;;103.72;41.33;;;;;;;5.36;82.97;100583.31;1708214;84;21025;-90
2021/11/04 00:18:34;;;;;;;93.67;43.98;;;;;;;5.32;82.79;100573.98;1737665;82;21210;-89
2021/11/04 00:21:00;;;;;;;100.55;43.13;;;;;;;5.26;82.99;100570.70;1737564;82;21082;-90
2021/11/04 00:23:27;;;;;;;93.33;42.00;;;;;;;5.22;82.97;100576.20;1707720;84;21738;-85
2021/11/04 00:25:54;;;;;;;86.40;43.45;;;;;;;5.21;83.01;100577.00;1737251;82;21055;-90
2021/11/04 00:28:20;;;;;;;92.40;44.45;;;;;;;5.18;83.13;100574.28;1737131;82;21516;-85
2021/11/04 00:30:47;;;;;;;94.75;43.28;;;;;;;5.19;83.35;100569.53;1707411;84;21146;-85
2021/11/04 00:33:14;;;;;;;103.38;43.28;;;;;;;5.22;83.39;100574.02;1736855;82;21082;-86
2021/11/04 00:35:41;;;;;;;82.37;43.00;;;;;;;5.16;83.00;100585.07;1736614;82;21821;-85
2021/11/04 00:38:07;;;;;;;81.87;43.35;;;;;;;5.09;83.18;100592.14;1707493;84;21066;-85
2021/11/04 00:40:34;;;;;;;94.45;42.70;;;;;;;5.12;83.42;100578.33;1737085;82;21396;-91
2021/11/04 00:43:01;;;;;;;94.32;41.65;;;;;;;5.14;83.51;100563.63;1737598;82;21183;-86
2021/11/04 00:45:28;;;;;;;95.03;43.87;;;;;;;5.11;83.27;100555.69;1707360;84;21585;-85
2021/11/04 00:47:54;;;;;;;85.47;41.70;;;;;;;5.00;83.19;100558.70;1736723;82;22459;-84
2021/11/04 00:50:24;;;;;;;95.28;39.05;;;;;;;5.00;83.49;100561.73;1737252;82;21054;-89
2021/11/04 00:52:50;;;;;;;75.65;39.85;;;;;;;5.02;83.66;100550.95;1707227;82;21145;-85
2021/11/04 00:55:17;;;;;;;93.12;39.60;;;;;;;5.04;83.63;100554.52;1750467;81;21160;-89
2021/11/04 00:57:44;;;;;;;102.07;38.55;;;;;;;5.04;83.63;100557.12;1739021;82;21343;-85
2021/11/04 01:00:13;;;;;;;81.32;38.05;;;;;;;5.03;83.66;100565.38;1738924;82;21784;-85
2021/11/04 01:02:40;;;;;;;70.92;38.73;;;;;;;5.09;83.93;100579.48;1751902;81;21101;-85
2021/11/04 01:05:07;;;;;;;89.32;40.38;;;;;;;5.17;84.14;100577.70;1758565;81;21057;-89
2021/11/04 01:07:34;;;;;;;90.97;39.05;;;;;;;5.25;84.17;100579.34;1739599;82;21030;-90
2021/11/04 01:10:00;;;;;;;77.65;38.67;;;;;;;5.32;84.12;100571.38;1739673;82;21061;-90
2021/11/04 01:12:27;;;;;;;111.68;38.83;;;;;;;5.35;84.05;100572.41;1739310;82;21758;-85
2021/11/04 01:14:54;;;;;;;112.00;36.45;;;;;;;5.40;84.05;100571.28;1738741;82;21042;-85
2021/11/04 01:17:20;;;;;;;75.42;37.42;;;;;;;5.42;84.09;100574.46;1751995;81;21121;-84
2021/11/04 01:19:47;;;;;;;121.42;37.63;;;;;;;5.43;84.06;100579.26;1751957;81;21514;-84
2021/11/04 01:22:14;;;;;;;92.10;39.27;;;;;;;5.45;84.09;100574.99;1752047;81;21051;-90
2021/11/04 01:24:40;;;;;;;106.50;40.65;;;;;;;5.47;84.18;100568.12;1752978;81;21750;-90
2021/11/04 01:27:07;;;;;;;122.37;42.08;;;;;;;5.49;84.13;100569.06;1752975;81;21051;-88
2021/11/04 01:29:34;;;;;;;100.65;42.43;;;;;;;5.43;83.94;100569.70;1752769;81;21000;-91
2021/11/04 01:32:00;;;;;;;129.95;41.58;;;;;;;5.39;83.95;100559.08;1752809;81;21034;-90
2021/11/04 01:34:27;;;;;;;120.42;41.55;;;;;;;5.35;83.94;100550.61;1752566;81;21028;-90
2021/11/04 01:36:54;;;;;;;104.55;40.48;;;;;;;5.31;84.13;100539.18;1752294;81;21714;-90
2021/11/04 01:39:20;;;;;;;99.50;39.48;;;;;;;5.26;84.05;100533.74;1752648;81;21046;-90
2021/11/04 01:41:47;;;;;;;106.47;39.90;;;;;;;5.21;84.09;100533.95;1752749;81;21015;-91
2021/11/04 01:44:14;;;;;;;123.50;39.13;;;;;;;5.22;84.41;100541.39;1752830;81;21540;-90
2021/11/04 01:46:40;;;;;;;93.80;41.30;;;;;;;5.25;84.55;100538.50;1752610;81;21066;-84
2021/11/04 01:49:07;;;;;;;91.30;41.68;;;;;;;5.30;84.76;100543.02;1752397;81;21794;-92
2021/11/04 01:51:34;;;;;;;82.47;39.55;;;;;;;5.39;84.90;100559.08;1753127;81;21047;-91
2021/11/04 01:54:01;;;;;;;87.78;40.48;;;;;;;5.45;84.93;100567.16;1753272;81;21063;-91
2021/11/04 01:56:27;;;;;;;83.75;40.48;;;;;;;5.52;84.97;100566.98;1743727;81;21044;-84
2021/11/04 01:58:54;;;;;;;73.45;40.40;;;;;;;5.58;84.93;100570.77;1725599;83;21069;-85
2021/11/04 02:01:22;;;;;;;70.37;39.03;;;;;;;5.64;84.95;100566.22;1725835;83;22692;-84
2021/11/04 02:03:54;;;;;;;83.78;40.25;;;;;;;5.71;84.92;100557.81;1725764;83;21517;-91
2021/11/04 02:06:37;;;;;;;80.55;39.08;;;;;;;5.75;84.85;100558.84;1726594;83;21000;-91
2021/11/04 02:09:20;;;;;;;87.35;40.90;;;;;;;5.78;84.79;100541.97;1717044;82;21066;-91
2021/11/04 02:11:53;;;;;;;76.25;41.55;;;;;;;5.80;84.71;100542.91;1726776;83;21121;-90
2021/11/04 02:14:26;;;;;;;71.60;40.83;;;;;;;5.85;84.83;100533.55;1726521;83;21721;-91
2021/11/04 02:16:53;;;;;;;71.25;43.00;;;;;;;5.86;84.59;100536.66;1726724;83;21011;-91
2021/11/04 02:19:57;;;;;;;66.75;39.05;;;;;;;5.86;84.45;100526.20;1726079;83;21074;-89
2021/11/04 02:22:53;;;;;;;70.50;38.10;;;;;;;5.82;84.26;100529.11;1726299;83;21058;-89
2021/11/04 02:25:27;;;;;;;65.42;39.83;;;;;;;5.78;84.07;100524.59;1726643;83;21096;-91
2021/11/04 02:27:59;;;;;;;67.67;40.12;;;;;;;5.73;84.04;100522.63;1726983;83;22571;-91
2021/11/04 02:30:27;;;;;;;70.67;41.28;;;;;;;5.72;84.02;100524.32;1726655;83;21077;-84
2021/11/04 02:32:57;;;;;;;74.92;41.35;;;;;;;5.70;83.98;100525.98;1730591;82;21073;-85
2021/11/04 02:35:23;;;;;;;70.92;40.83;;;;;;;5.64;83.80;100521.83;1731159;82;21050;-90
2021/11/04 02:37:51;;;;;;;73.17;43.35;;;;;;;5.60;83.87;100514.27;1702843;84;21477;-84
2021/11/04 02:40:20;;;;;;;69.37;41.48;;;;;;;5.56;83.78;100522.81;1730550;82;21747;-84
2021/11/04 02:42:46;;;;;;;68.25;42.30;;;;;;;5.54;83.77;100521.87;1706069;82;21073;-84
2021/11/04 02:45:16;;;;;;;58.35;38.85;;;;;;;5.52;83.80;100510.47;1701076;82;21113;-84
2021/11/04 02:47:42;;;;;;;60.50;39.40;;;;;;;5.51;83.84;100511.28;1730851;82;21528;-84
2021/11/04 02:50:09;;;;;;;56.18;38.40;;;;;;;5.48;83.68;100511.17;1731102;82;21535;-84
2021/11/04 02:52:36;;;;;;;58.55;37.93;;;;;;;5.42;83.58;100509.59;1701758;84;22607;-85
2021/11/04 02:55:03;;;;;;;54.42;37.85;;;;;;;5.37;83.57;100504.20;1731264;81;21007;-90
2021/11/04 02:57:31;;;;;;;60.38;39.33;;;;;;;5.36;83.62;100493.69;1731450;82;21050;-90
2021/11/04 02:59:57;;;;;;;62.17;39.50;;;;;;;5.35;83.74;100483.67;1702655;84;21296;-89
2021/11/04 03:02:24;;;;;;;64.80;41.05;;;;;;;5.40;83.96;100477.31;1731930;82;21010;-90
2021/11/04 03:04:51;;;;;;;62.67;40.40;;;;;;;5.44;83.94;100468.78;1732133;82;22675;-89
2021/11/04 03:07:17;;;;;;;64.10;41.73;;;;;;;5.43;83.85;100465.29;1702597;84;21269;-89
2021/11/04 03:09:44;;;;;;;65.15;40.00;;;;;;;5.44;84.00;100457.03;1731806;82;21073;-89
2021/11/04 03:12:11;;;;;;;65.17;42.45;;;;;;;5.49;84.17;100449.41;1731823;82;21018;-90
2021/11/04 03:14:38;;;;;;;59.03;41.45;;;;;;;5.52;84.38;100438.67;1702564;84;21085;-89
2021/11/04 03:17:04;;;;;;;61.85;41.40;;;;;;;5.59;84.55;100444.63;1732117;82;21763;-90
2021/11/04 03:19:31;;;;;;;62.40;42.45;;;;;;;5.65;84.59;100433.53;1732230;82;20999;-90
2021/11/04 03:21:58;;;;;;;62.98;41.98;;;;;;;5.72;84.64;100432.04;1702886;84;21070;-90
2021/11/04 03:24:26;;;;;;;64.77;43.10;;;;;;;5.78;84.61;100427.96;1731909;82;21611;-90
2021/11/04 03:27:05;;;;;;;63.80;41.42;;;;;;;5.84;84.52;100431.23;1731842;82;21046;-86
2021/11/04 03:29:36;;;;;;;67.82;42.43;;;;;;;5.87;84.50;100426.09;1731839;82;21801;-89
2021/11/04 03:32:06;;;;;;;60.55;40.48;;;;;;;5.91;84.56;100422.80;1731793;82;21070;-89
2021/11/04 03:34:33;;;;;;;63.10;40.85;;;;;;;5.97;84.58;100420.88;1732094;82;21074;-89
2021/11/04 03:36:59;;;;;;;68.87;43.83;;;;;;;6.00;84.45;100421.84;1702523;84;21599;-90
2021/11/04 03:39:26;;;;;;;66.12;42.17;;;;;;;6.06;84.53;100415.08;1732124;82;21611;-90
2021/11/04 03:41:56;;;;;;;69.45;41.40;;;;;;;6.10;84.52;100413.05;1732283;82;21765;-90
2021/11/04 03:44:24;;;;;;;64.45;43.58;;;;;;;6.12;84.46;100405.77;1701726;82;21094;-91
2021/11/04 03:46:51;;;;;;;63.68;42.00;;;;;;;6.05;84.52;100382.85;1682725;84;21078;-91
2021/11/04 03:49:19;;;;;;;66.35;43.10;;;;;;;6.18;84.51;100404.68;1731713;82;21586;-90
2021/11/04 03:51:48;;;;;;;68.12;44.25;;;;;;;6.19;84.54;100402.95;1731657;82;21046;-90
2021/11/04 03:54:17;;;;;;;71.28;44.80;;;;;;;6.21;84.63;100406.50;1702248;84;21765;-90
2021/11/04 03:56:44;;;;;;;62.23;41.53;;;;;;;6.21;84.55;100402.59;1731180;81;21174;-90
2021/11/04 03:59:11;;;;;;;65.60;41.15;;;;;;;6.23;84.59;100400.91;1731541;82;21089;-90
2021/11/04 04:01:37;;;;;;;62.88;42.85;;;;;;;6.26;84.66;100404.96;1702266;84;21094;-90
2021/11/04 04:04:04;;;;;;;56.28;39.42;;;;;;;6.28;84.54;100407.21;1731844;82;21054;-90
2021/11/04 04:06:32;;;;;;;55.60;39.83;;;;;;;6.31;84.59;100409.06;1731816;82;21760;-90
2021/11/04 04:08:59;;;;;;;57.98;38.73;;;;;;;6.30;84.42;100409.46;1702918;84;21078;-89
2021/11/04 04:11:25;;;;;;;56.58;37.95;;;;;;;6.35;84.54;100414.45;1732164;82;21066;-91
2021/11/04 04:13:53;;;;;;;51.63;35.73;;;;;;;6.39;84.49;100403.69;1732195;82;21118;-91
2021/11/04 04:16:19;;;;;;;55.98;38.85;;;;;;;6.41;84.31;100410.74;1702885;84;21307;-90
2021/11/04 04:18:46;;;;;;;53.05;37.65;;;;;;;6.39;84.25;100414.14;1732134;82;21735;-90
2021/11/04 04:21:13;;;;;;;51.83;36.63;;;;;;;6.43;84.31;100423.87;1732131;82;21087;-90
2021/11/04 04:23:39;;;;;;;51.75;36.10;;;;;;;6.46;84.25;100423.08;1702801;84;21054;-89
2021/11/04 04:28:48;;;;;;;49.03;35.58;;;;;;;6.54;84.15;100416.00;1867539;76;22764;-72
2021/11/04 04:31:15;;;;;;;49.67;34.73;;;;;;;6.39;84.08;100396.73;1824365;77;21035;-72
2021/11/04 04:33:42;;;;;;;48.33;35.28;;;;;;;6.54;84.08;100413.38;1824532;77;21770;-73
2021/11/04 04:36:09;;;;;;;47.73;34.23;;;;;;;6.57;84.01;100413.94;1824563;78;21058;-73
2021/11/04 04:38:35;;;;;;;43.48;33.33;;;;;;;6.58;83.98;100416.58;1824630;77;21131;-73
2021/11/04 04:41:02;;;;;;;44.08;32.60;;;;;;;6.61;83.89;100409.28;1824632;77;21053;-73
2021/11/04 04:43:29;;;;;;;46.48;34.33;;;;;;;6.65;83.76;100407.23;1824588;77;21556;-73
2021/11/04 04:45:55;;;;;;;41.23;31.62;;;;;;;6.66;83.72;100401.15;1824782;78;21724;-73
2021/11/04 04:48:22;;;;;;;41.65;31.10;;;;;;;6.66;83.57;100409.00;1824540;77;21062;-74
2021/11/04 04:50:49;;;;;;;42.60;31.82;;;;;;;6.67;83.61;100402.95;1822922;78;21069;-74
2021/11/04 04:53:16;;;;;;;41.70;30.77;;;;;;;6.69;83.61;100403.89;1823277;78;21033;-73
2021/11/04 04:55:45;;;;;;;44.77;31.82;;;;;;;6.70;83.47;100399.53;1824180;77;21112;-78
2021/11/04 04:58:18;;;;;;;43.08;29.48;;;;;;;6.72;83.50;100392.63;1824047;78;21713;-77
2021/11/04 05:00:45;;;;;;;39.98;29.42;;;;;;;6.75;83.49;100382.28;1823255;77;21062;-77
2021/11/04 05:03:18;;;;;;;42.25;31.55;;;;;;;6.73;83.25;100380.03;1820914;77;21070;-76
2021/11/04 05:05:46;;;;;;;42.33;31.05;;;;;;;6.64;83.38;100355.75;1823688;77;21073;-76
2021/11/04 05:08:15;;;;;;;45.98;31.68;;;;;;;6.72;83.18;100365.16;1815424;78;21034;-77
2021/11/04 05:10:42;;;;;;;41.58;30.32;;;;;;;6.68;83.28;100369.83;1814929;78;21731;-77
2021/11/04 05:13:09;;;;;;;46.02;31.93;;;;;;;6.66;83.18;100364.97;1814994;78;21030;-78
2021/11/04 05:15:39;;;;;;;41.42;31.05;;;;;;;6.64;83.20;100376.67;1815146;78;21077;-77
2021/11/04 05:18:08;;;;;;;41.00;30.30;;;;;;;6.64;83.32;100383.64;1814781;78;21058;-76
2021/11/04 05:20:36;;;;;;;41.28;31.02;;;;;;;6.63;83.27;100376.64;1815085;78;21094;-77
2021/11/04 05:23:03;;;;;;;44.77;32.17;;;;;;;6.56;83.12;100375.10;1814617;77;21744;-76
2021/11/04 05:25:33;;;;;;;42.20;32.25;;;;;;;6.47;82.96;100369.97;1814519;79;21034;-76
2021/11/04 05:28:03;;;;;;;45.88;32.08;;;;;;;6.34;83.01;100379.09;1820834;77;21072;-77
2021/11/04 05:30:33;;;;;;;50.50;34.38;;;;;;;6.29;83.20;100391.09;1827674;77;21119;-83
2021/11/04 05:32:59;;;;;;;46.30;33.60;;;;;;;6.27;83.37;100403.23;1827750;78;21073;-78
2021/11/04 05:35:28;;;;;;;42.55;32.88;;;;;;;6.27;83.52;100408.06;1827252;78;21761;-78
2021/11/04 05:37:55;;;;;;;45.85;32.23;;;;;;;6.31;83.65;100403.84;1826906;77;21072;-80
2021/11/04 05:40:26;;;;;;;46.70;32.95;;;;;;;6.36;83.69;100400.56;1826137;78;21551;-75
2021/11/04 05:42:53;;;;;;;44.13;31.87;;;;;;;6.38;83.69;100399.28;1826362;78;21057;-75
2021/11/04 05:45:20;;;;;;;49.40;32.67;;;;;;;6.39;83.67;100408.91;1826547;78;21031;-76
2021/11/04 05:47:46;;;;;;;46.00;32.90;;;;;;;6.42;83.72;100411.23;1826447;78;21042;-75
2021/11/04 05:50:13;;;;;;;43.08;29.75;;;;;;;6.45;83.72;100396.05;1826442;78;21750;-75
2021/11/04 05:52:42;;;;;;;44.48;30.50;;;;;;;6.46;83.60;100394.32;1826651;77;21049;-75
2021/11/04 05:55:11;;;;;;;46.02;30.85;;;;;;;6.48;83.69;100407.06;1826708;78;21097;-75
2021/11/04 05:57:37;;;;;;;43.23;31.37;;;;;;;6.51;83.67;100398.88;1826363;77;21065;-75
2021/11/04 06:00:08;;;;;;;40.35;29.95;;;;;;;6.54;83.64;100395.51;1826579;78;21747;-76
2021/11/04 06:02:35;;;;;;;40.58;30.37;;;;;;;6.55;83.61;100392.95;1826387;78;21673;-75
2021/11/04 06:05:05;;;;;;;43.65;31.27;;;;;;;6.60;83.80;100391.79;1826207;78;21097;-75
2021/11/04 06:07:32;;;;;;;42.20;30.17;;;;;;;6.63;83.55;100385.80;1826459;78;21037;-75
2021/11/04 06:10:04;;;;;;;41.08;30.65;;;;;;;6.65;83.67;100382.81;1797965;78;21572;-75
2021/11/04 06:12:31;;;;;;;42.65;30.48;;;;;;;6.68;83.49;100383.81;1826532;78;22307;-75
2021/11/04 06:15:01;;;;;;;44.90;30.55;;;;;;;6.70;83.50;100378.61;1826387;78;21041;-75
2021/11/04 06:17:30;;;;;;;42.83;31.25;;;;;;;6.67;83.33;100371.56;1826053;78;21420;-76
2021/11/04 06:19:57;;;;;;;45.98;32.65;;;;;;;6.67;83.36;100368.95;1826684;78;21058;-75
2021/11/04 06:22:26;;;;;;;40.95;31.25;;;;;;;6.71;83.46;100369.94;1826400;78;21066;-75
2021/11/04 06:24:52;;;;;;;42.75;31.12;;;;;;;6.72;83.33;100360.84;1826805;78;21796;-76
2021/11/04 06:27:19;;;;;;;47.65;32.28;;;;;;;6.72;83.36;100348.16;1825292;77;21047;-75
2021/11/04 06:29:46;;;;;;;42.55;30.15;;;;;;;6.74;83.30;100347.83;1814185;78;21524;-76
2021/11/04 06:32:13;;;;;;;40.23;29.90;;;;;;;6.73;83.34;100339.06;1814436;78;21066;-75
2021/11/04 06:34:40;;;;;;;43.00;30.52;;;;;;;6.74;83.24;100339.55;1814402;79;21031;-76
2021/11/04 06:37:06;;;;;;;38.33;27.90;;;;;;;6.74;83.17;100342.59;1814420;78;21691;-76
2021/11/04 06:39:35;;;;;;;43.25;31.15;;;;;;;6.70;83.16;100341.99;1814427;78;21644;-76
2021/11/04 06:42:01;;;;;;;37.53;28.55;;;;;;;6.67;83.15;100342.79;1814201;78;21726;-75
2021/11/04 06:44:28;;;;;;;40.40;28.77;;;;;;;6.68;83.19;100344.98;1814169;79;21042;-75
2021/11/04 06:47:00;;;;;;;38.95;28.27;;;;;;;6.67;83.26;100341.91;1781877;79;21041;-76
2021/11/04 06:49:28;;;;;;;39.58;27.22;;;;;;;6.67;83.28;100343.22;1814307;77;21691;-75
2021/11/04 06:51:56;;;;;;;38.55;28.40;;;;;;;6.66;83.26;100347.53;1814166;79;21229;-76
2021/11/04 06:54:25;;;;;;;38.28;28.25;;;;;;;6.68;83.42;100344.98;1814233;77;21563;-75
2021/11/04 06:56:52;;;;;;;39.70;28.95;;;;;;;6.73;83.60;100345.61;1814507;79;21567;-75
2021/11/04 06:59:21;;;;;;;40.73;27.90;;;;;;;6.76;83.49;100345.72;1814444;79;21054;-76
2021/11/04 07:01:56;;;;;;;40.28;27.95;;;;;;;6.83;83.57;100341.56;1814396;79;21795;-76
2021/11/04 07:04:29;;;;;;;37.63;28.10;;;;;;;6.78;83.48;100327.04;1814310;79;21527;-75
2021/11/04 07:07:12;;;;;;;36.42;26.75;;;;;;;6.90;83.38;100333.09;1814427;78;21046;-75
2021/11/04 07:09:41;;;;;;;43.28;30.32;;;;;;;6.88;83.23;100326.04;1814641;79;21030;-76
2021/11/04 07:12:10;;;;;;;40.65;29.02;;;;;;;6.83;83.32;100318.45;1814580;77;21047;-76
2021/11/04 07:14:40;;;;;;;42.15;29.77;;;;;;;6.85;83.28;100317.68;1814471;79;21745;-76
2021/11/04 07:17:08;;;;;;;44.60;30.23;;;;;;;6.87;83.39;100311.17;1814414;79;21584;-75
2021/11/04 07:19:34;;;;;;;41.30;29.87;;;;;;;6.90;83.49;100310.84;1814268;79;21014;-75
2021/11/04 07:22:24;;;;;;;37.33;28.52;;;;;;;6.99;83.64;100309.84;1814287;78;21054;-75
2021/11/04 07:25:12;;;;;;;42.65;29.92;;;;;;;7.08;83.59;100313.19;1814430;78;21069;-74
2021/11/04 07:28:14;;;;;;;44.27;30.10;;;;;;;7.17;83.58;100309.55;1814224;78;21800;-75
2021/11/04 07:30:41;;;;;;;45.28;32.78;;;;;;;7.25;83.50;100304.98;1814048;79;21347;-76
2021/11/04 07:33:09;;;;;;;42.95;30.92;;;;;;;7.31;83.40;100301.24;1814629;79;21387;-75
2021/11/04 07:35:40;;;;;;;48.02;30.70;;;;;;;7.38;83.43;100303.21;1814376;78;21098;-75
2021/11/04 07:38:12;;;;;;;50.17;31.17;;;;;;;7.40;83.34;100293.67;1814391;79;21093;-75
2021/11/04 07:40:39;;;;;;;40.95;29.92;;;;;;;7.50;83.47;100297.45;1814450;79;21747;-75
2021/11/04 07:43:05;;;;;;;41.28;29.98;;;;;;;7.66;83.67;100290.92;1814280;79;21019;-75
2021/11/04 07:45:32;;;;;;;40.73;29.23;;;;;;;7.81;83.50;100284.84;1814191;77;21033;-75
2021/11/04 07:47:59;;;;;;;38.13;28.10;;;;;;;7.93;83.41;100290.84;1813863;78;21070;-76
2021/11/04 07:50:29;;;;;;;41.73;29.32;;;;;;;7.98;83.06;100288.81;1814370;79;21054;-76
2021/11/04 07:52:56;;;;;;;40.78;28.77;;;;;;;8.05;82.93;100286.36;1814348;79;21791;-75
2021/11/04 07:55:23;;;;;;;37.55;29.35;;;;;;;8.12;83.02;100290.92;1814373;79;21075;-75
2021/11/04 07:57:50;;;;;;;42.30;27.60;;;;;;;8.21;82.94;100291.19;1814211;78;21556;-76
2021/11/04 08:00:19;;;;;;;38.80;26.87;;;;;;;8.27;82.86;100292.65;1814419;77;21061;-76
2021/11/04 08:02:45;;;;;;;39.15;27.27;;;;;;;8.35;82.72;100292.84;1814483;78;21045;-76
2021/11/04 08:05:17;;;;;;;33.42;25.70;;;;;;;8.43;82.72;100292.68;1814397;78;21710;-75
2021/11/04 08:07:44;;;;;;;36.38;26.90;;;;;;;8.55;82.66;100296.04;1814307;79;21042;-76
2021/11/04 08:10:16;;;;;;;37.60;27.02;;;;;;;8.59;82.27;100295.27;1814506;78;21035;-76
2021/11/04 08:12:43;;;;;;;37.55;26.45;;;;;;;8.62;82.25;100299.29;1782820;79;21643;-75
2021/11/04 08:15:10;;;;;;;36.93;27.75;;;;;;;8.70;82.24;100303.42;1814583;79;21133;-76
2021/11/04 08:17:37;;;;;;;35.83;26.50;;;;;;;8.72;82.04;100301.28;1814570;78;22149;-75
2021/11/04 08:20:05;;;;;;;32.15;25.10;;;;;;;8.80;81.96;100303.22;1814637;78;21078;-75
2021/11/04 08:22:32;;;;;;;32.88;26.02;;;;;;;8.83;81.84;100301.56;1814344;79;21074;-76
2021/11/04 08:24:59;;;;;;;34.78;26.40;;;;;;;8.85;81.73;100293.73;1814428;79;21026;-75
2021/11/04 08:27:26;;;;;;;35.25;25.50;;;;;;;8.90;81.67;100288.17;1814364;79;21129;-76
2021/11/04 08:29:53;;;;;;;34.43;26.65;;;;;;;8.94;81.63;100289.59;1825642;77;21763;-75
2021/11/04 08:32:20;;;;;;;40.20;26.20;;;;;;;8.97;81.47;100295.76;1826209;78;21057;-75
2021/11/04 08:34:47;;;;;;;36.28;24.95;;;;;;;9.03;81.56;100286.30;1826554;77;21046;-76
2021/11/04 08:37:13;;;;;;;32.38;24.57;;;;;;;9.10;81.58;100294.80;1826734;78;21578;-75
2021/11/04 08:39:40;;;;;;;37.67;25.85;;;;;;;9.15;81.45;100285.26;1826644;77;21042;-76
2021/11/04 08:42:07;;;;;;;32.50;26.20;;;;;;;9.20;81.45;100287.13;1826677;78;21717;-75
2021/11/04 08:44:34;;;;;;;38.35;26.35;;;;;;;9.24;81.36;100285.91;1826637;78;21038;-75
2021/11/04 08:47:02;;;;;;;34.73;25.97;;;;;;;9.27;81.21;100285.99;1826595;78;21554;-75
2021/11/04 08:49:29;;;;;;;33.67;25.52;;;;;;;9.25;80.90;100282.45;1826433;78;21058;-75
2021/11/04 08:51:57;;;;;;;31.40;25.05;;;;;;;9.19;80.87;100280.09;1826611;78;21112;-75
2021/11/04 08:54:24;;;;;;;32.90;26.02;;;;;;;9.15;80.84;100274.76;1826558;78;21804;-75
2021/11/04 08:56:54;;;;;;;36.17;25.65;;;;;;;9.13;80.85;100264.64;1826659;78;21096;-75
2021/11/04 08:59:20;;;;;;;35.43;25.68;;;;;;;9.14;80.89;100257.65;1825991;78;21065;-76
2021/11/04 09:01:47;;;;;;;37.83;27.17;;;;;;;9.17;80.95;100252.48;1826472;77;21070;-75
2021/11/04 09:04:14;;;;;;;37.17;26.77;;;;;;;9.15;80.67;100241.94;1826702;78;21121;-75
2021/11/04 09:06:40;;;;;;;36.05;26.80;;;;;;;9.08;80.54;100241.33;1826553;78;22226;-75
2021/11/04 09:09:11;;;;;;;38.85;28.25;;;;;;;9.06;80.78;100232.97;1826447;77;21045;-75
2021/11/04 09:11:38;;;;;;;33.48;26.27;;;;;;;9.04;80.58;100228.99;1826613;78;21074;-75
2021/11/04 09:14:04;;;;;;;30.88;25.65;;;;;;;8.87;80.27;100231.23;1826731;78;21034;-75
2021/11/04 09:16:31;;;;;;;38.90;28.00;;;;;;;8.77;80.48;100233.63;1826579;78;21565;-75
2021/11/04 09:18:57;;;;;;;38.53;26.48;;;;;;;8.70;80.69;100231.27;1826711;78;22696;-75
2021/11/04 09:21:24;;;;;;;37.73;27.45;;;;;;;8.68;80.91;100230.34;1826829;78;21041;-75
2021/11/04 09:23:54;;;;;;;35.03;26.55;;;;;;;8.67;80.98;100226.84;1826738;78;21638;-75
2021/11/04 09:26:21;;;;;;;33.60;26.10;;;;;;;8.67;81.05;100227.23;1826826;78;21062;-75
2021/11/04 09:28:47;;;;;;;37.75;28.32;;;;;;;8.70;81.16;100213.77;1826722;78;21077;-75
2021/11/04 09:31:14;;;;;;;34.53;27.77;;;;;;;8.76;81.13;100209.09;1826591;78;21779;-75
2021/11/04 09:33:44;;;;;;;34.20;27.52;;;;;;;8.82;81.20;100200.48;1826719;78;21108;-75
2021/11/04 09:36:13;;;;;;;38.20;30.05;;;;;;;8.85;81.13;100190.94;1827040;78;21030;-75
2021/11/04 09:38:39;;;;;;;35.88;26.42;;;;;;;8.87;80.93;100180.48;1827197;77;21053;-75
2021/11/04 09:41:06;;;;;;;35.55;27.80;;;;;;;8.86;80.95;100165.57;1827119;78;21166;-75
2021/11/04 09:43:34;;;;;;;31.10;23.47;;;;;;;8.89;80.99;100156.03;1826900;78;21729;-75
2021/11/04 09:46:03;;;;;;;35.50;27.65;;;;;;;8.92;80.89;100136.86;1798804;78;21460;-76
2021/11/04 09:48:32;;;;;;;40.73;29.92;;;;;;;8.92;81.03;100135.11;1826734;77;21049;-76
2021/11/04 09:50:58;;;;;;;42.27;28.55;;;;;;;9.00;80.97;100130.46;1773060;78;21053;-76
2021/11/04 09:53:25;;;;;;;38.45;28.90;;;;;;;9.04;80.83;100123.10;1826876;78;21117;-75
2021/11/04 09:55:56;;;;;;;37.05;27.73;;;;;;;9.13;80.99;100114.98;1826841;77;21705;-76
2021/11/04 09:58:20;;;;;;;36.65;28.87;;;;;;;9.27;81.07;100101.24;1825811;78;21634;-75
2021/11/04 10:00:47;;;;;;;38.08;27.98;;;;;;;9.38;80.80;100114.16;1826736;78;21029;-75
2021/11/04 10:03:15;;;;;;;34.35;26.30;;;;;;;9.43;80.62;100106.39;1826834;78;21202;-75
2021/11/04 10:05:45;;;;;;;35.58;28.30;;;;;;;9.40;80.45;100119.45;1826391;78;21050;-75
2021/11/04 10:08:15;;;;;;;31.85;26.05;;;;;;;9.37;80.41;100114.16;1826689;78;22590;-75
2021/11/04 10:10:45;;;;;;;35.70;28.12;;;;;;;9.38;80.52;100106.28;1826759;77;21037;-75
2021/11/04 10:13:12;;;;;;;38.67;28.45;;;;;;;9.38;80.51;100106.72;1826425;78;21034;-74
2021/11/04 10:15:41;;;;;;;34.15;26.93;;;;;;;9.38;80.54;100098.84;1826737;77;21058;-75
2021/11/04 10:18:20;;;;;;;37.35;28.30;;;;;;;9.34;80.50;100086.95;1826947;78;21331;-75
2021/11/04 10:20:59;;;;;;;37.25;27.80;;;;;;;9.29;80.41;100075.89;1826592;77;22553;-74
2021/11/04 10:23:29;;;;;;;34.45;26.45;;;;;;;9.29;80.60;100079.84;1826557;78;21026;-75
2021/11/04 10:26:15;;;;;;;37.05;26.52;;;;;;;9.26;80.53;100065.36;1826821;78;21050;-74
2021/11/04 10:28:47;;;;;;;34.78;27.50;;;;;;;9.25;80.72;100053.97;1824881;78;21485;-74
2021/11/04 10:31:19;;;;;;;34.63;27.58;;;;;;;9.26;80.76;100060.98;1826691;78;21011;-75
2021/11/04 10:33:51;;;;;;;40.58;26.85;;;;;;;9.33;80.87;100050.17;1826908;78;21747;-75
2021/11/04 10:36:23;;;;;;;37.90;27.73;;;;;;;9.36;80.74;100055.47;1826742;77;21037;-75
2021/11/04 10:39:00;;;;;;;38.15;29.45;;;;;;;9.37;80.85;100055.94;1826731;78;21115;-75
2021/11/04 10:41:36;;;;;;;36.53;27.32;;;;;;;9.38;80.83;100048.93;1826676;78;21434;-75
2021/11/04 10:44:15;;;;;;;35.15;28.67;;;;;;;9.40;80.77;100045.47;1826800;78;21331;-75
2021/11/04 10:46:56;;;;;;;34.23;26.82;;;;;;;9.38;80.69;100043.24;1826696;78;22010;-75
2021/11/04 10:49:23;;;;;;;37.55;27.95;;;;;;;9.37;80.81;100019.60;1826902;78;21092;-75
2021/11/04 10:52:00;;;;;;;34.58;26.33;;;;;;;9.40;80.84;100015.70;1826683;77;21065;-75
2021/11/04 10:54:29;;;;;;;35.33;27.25;;;;;;;9.40;80.95;100006.06;1826309;78;21045;-75
2021/11/04 10:56:55;;;;;;;41.10;29.67;;;;;;;9.45;81.00;99986.46;1798048;78;21069;-75
2021/11/04 10:59:24;;;;;;;35.60;28.32;;;;;;;9.44;80.90;99989.94;1826891;78;21777;-75
2021/11/04 11:01:53;;;;;;;36.13;28.95;;;;;;;9.42;80.83;100000.44;1826623;78;21516;-75
2021/11/04 11:04:25;;;;;;;38.25;27.98;;;;;;;9.40;80.85;99990.74;1826855;78;22191;-75
2021/11/04 11:06:54;;;;;;;37.75;28.25;;;;;;;9.43;80.97;99990.81;1826619;78;21042;-75
2021/11/04 11:09:25;;;;;;;37.38;26.90;;;;;;;9.43;80.89;99977.67;1826708;78;21037;-75
2021/11/04 11:11:56;;;;;;;35.52;25.88;;;;;;;9.40;80.96;99966.67;1826551;78;21747;-75
2021/11/04 11:14:23;;;;;;;38.60;27.20;;;;;;;9.47;81.15;99974.23;1825444;78;21449;-75
2021/11/04 11:16:54;;;;;;;39.25;28.02;;;;;;;9.48;80.93;99970.33;1826551;78;21057;-75
2021/11/04 11:19:25;;;;;;;36.42;27.15;;;;;;;9.49;80.87;99974.70;1826643;77;21098;-75
2021/11/04 11:21:52;;;;;;;36.58;28.57;;;;;;;9.48;80.90;99965.08;1826390;78;21706;-75
2021/11/04 11:24:29;;;;;;;37.35;27.17;;;;;;;9.52;80.97;99961.63;1826709;78;21734;-75
2021/11/04 11:26:57;;;;;;;40.17;27.25;;;;;;;9.56;81.02;99941.98;1822522;77;21635;-75